TAP270Y LPPT-LPMA
Flight info
| Callsign | TAP270Y |
|---|---|
| Flight time | N/A |
| Altitude | 37000 |
| Route | ULVOT DCT GALPA DCT RAKUN |
| Aircraft | A319/M-SDE3FGHIRWY/LB1 |
Departure
| Time | N/A |
|---|---|
| Airport | Lisbon Humberto Delgado Airport (LPPT) |
Arrival
| Time | 2026-05-03 20:53 |
|---|---|
| Airport | Cristiano Ronaldo International Airport (LPMA) |
| Time | Latitude | Longitude | Altitude | Speed | Heading |
|---|---|---|---|---|---|
| 2026-05-03 20:15 | 35.26878 | -13.70860 | 37116 ft | 394 kts | 230° |
| 2026-05-03 20:15 | 35.23059 | -13.75633 | 37118 ft | 395 kts | 230° |
| 2026-05-03 20:16 | 35.19217 | -13.80431 | 37115 ft | 395 kts | 230° |
| 2026-05-03 20:16 | 35.15361 | -13.85225 | 37122 ft | 395 kts | 230° |
| 2026-05-03 20:17 | 35.11504 | -13.90006 | 37119 ft | 395 kts | 230° |
| 2026-05-03 20:17 | 35.07643 | -13.94789 | 37119 ft | 395 kts | 230° |
| 2026-05-03 20:18 | 35.03785 | -13.99576 | 37121 ft | 395 kts | 230° |
| 2026-05-03 20:18 | 35.00575 | -14.03556 | 37119 ft | 395 kts | 230° |
| 2026-05-03 20:19 | 34.96711 | -14.08333 | 37118 ft | 396 kts | 230° |
| 2026-05-03 20:19 | 34.92840 | -14.13101 | 37118 ft | 396 kts | 230° |
| 2026-05-03 20:20 | 34.88973 | -14.17873 | 37115 ft | 396 kts | 230° |
| 2026-05-03 20:20 | 34.85101 | -14.22633 | 37120 ft | 396 kts | 230° |
| 2026-05-03 20:21 | 34.81224 | -14.27398 | 37123 ft | 396 kts | 230° |
| 2026-05-03 20:21 | 34.77342 | -14.32155 | 37119 ft | 396 kts | 229° |
| 2026-05-03 20:22 | 34.73459 | -14.36910 | 37119 ft | 396 kts | 229° |
| 2026-05-03 20:22 | 34.69603 | -14.41629 | 37122 ft | 396 kts | 229° |
| 2026-05-03 20:23 | 34.65717 | -14.46381 | 37123 ft | 396 kts | 229° |
| 2026-05-03 20:23 | 34.61822 | -14.51133 | 37122 ft | 396 kts | 229° |
| 2026-05-03 20:24 | 34.57929 | -14.55874 | 37123 ft | 396 kts | 229° |
| 2026-05-03 20:24 | 34.54035 | -14.60614 | 37121 ft | 396 kts | 229° |
| 2026-05-03 20:25 | 34.50165 | -14.65316 | 37124 ft | 396 kts | 229° |
| 2026-05-03 20:25 | 34.46267 | -14.70048 | 37126 ft | 396 kts | 229° |
| 2026-05-03 20:26 | 34.42367 | -14.74768 | 37121 ft | 397 kts | 229° |
| 2026-05-03 20:26 | 34.38461 | -14.79496 | 37122 ft | 397 kts | 229° |
| 2026-05-03 20:27 | 34.34555 | -14.84220 | 37123 ft | 397 kts | 229° |
| 2026-05-03 20:27 | 34.30640 | -14.88941 | 37124 ft | 397 kts | 229° |
| 2026-05-03 20:28 | 34.26727 | -14.93662 | 37118 ft | 397 kts | 229° |
| 2026-05-03 20:28 | 34.22813 | -14.98377 | 37123 ft | 398 kts | 229° |
| 2026-05-03 20:29 | 34.18888 | -15.03087 | 37119 ft | 398 kts | 229° |
| 2026-05-03 20:29 | 34.14965 | -15.07801 | 37117 ft | 398 kts | 229° |
| 2026-05-03 20:30 | 34.11038 | -15.12517 | 37121 ft | 398 kts | 229° |
| 2026-05-03 20:30 | 34.07125 | -15.17188 | 37119 ft | 398 kts | 229° |
| 2026-05-03 20:30 | 34.05153 | -15.19543 | 36978 ft | 399 kts | 229° |
| 2026-05-03 20:31 | 34.03182 | -15.21896 | 36714 ft | 398 kts | 229° |
| 2026-05-03 20:31 | 34.01213 | -15.24244 | 36454 ft | 398 kts | 229° |
| 2026-05-03 20:31 | 33.99243 | -15.26594 | 36197 ft | 398 kts | 229° |
| 2026-05-03 20:31 | 33.97278 | -15.28937 | 35945 ft | 398 kts | 229° |
| 2026-05-03 20:32 | 33.95312 | -15.31283 | 35692 ft | 398 kts | 229° |
| 2026-05-03 20:32 | 33.93347 | -15.33624 | 35446 ft | 398 kts | 229° |
| 2026-05-03 20:32 | 33.91378 | -15.35966 | 35202 ft | 398 kts | 229° |
| 2026-05-03 20:32 | 33.89408 | -15.38309 | 34955 ft | 398 kts | 229° |
| 2026-05-03 20:33 | 33.87441 | -15.40644 | 34715 ft | 397 kts | 229° |
| 2026-05-03 20:33 | 33.85472 | -15.42976 | 34475 ft | 397 kts | 229° |
| 2026-05-03 20:33 | 33.83500 | -15.45311 | 34236 ft | 397 kts | 229° |
| 2026-05-03 20:33 | 33.81533 | -15.47642 | 33987 ft | 397 kts | 229° |
| 2026-05-03 20:34 | 33.79560 | -15.49981 | 33711 ft | 398 kts | 229° |
| 2026-05-03 20:34 | 33.77583 | -15.52323 | 33441 ft | 400 kts | 229° |
| 2026-05-03 20:34 | 33.75602 | -15.54669 | 33175 ft | 401 kts | 229° |
| 2026-05-03 20:34 | 33.73606 | -15.57032 | 32900 ft | 403 kts | 229° |
| 2026-05-03 20:35 | 33.71608 | -15.59394 | 32648 ft | 404 kts | 229° |
| 2026-05-03 20:35 | 33.69595 | -15.61771 | 32389 ft | 406 kts | 229° |
| 2026-05-03 20:35 | 33.67578 | -15.64151 | 32129 ft | 407 kts | 229° |
| 2026-05-03 20:35 | 33.65576 | -15.66513 | 31170 ft | 413 kts | 229° |
| 2026-05-03 20:36 | 33.63469 | -15.69000 | 29721 ft | 425 kts | 229° |
| 2026-05-03 20:36 | 33.61335 | -15.71519 | 28238 ft | 434 kts | 229° |
| 2026-05-03 20:36 | 33.59196 | -15.74038 | 26835 ft | 441 kts | 228° |
| 2026-05-03 20:36 | 33.56985 | -15.76634 | 25410 ft | 448 kts | 228° |
| 2026-05-03 20:37 | 33.54745 | -15.79260 | 24323 ft | 449 kts | 228° |
| 2026-05-03 20:37 | 33.52528 | -15.81846 | 23541 ft | 441 kts | 227° |
| 2026-05-03 20:37 | 33.50335 | -15.84392 | 22562 ft | 437 kts | 227° |
| 2026-05-03 20:37 | 33.48163 | -15.86911 | 21635 ft | 432 kts | 227° |
| 2026-05-03 20:38 | 33.46012 | -15.89406 | 20754 ft | 428 kts | 227° |
| 2026-05-03 20:38 | 33.43878 | -15.91882 | 19917 ft | 425 kts | 227° |
| 2026-05-03 20:38 | 33.41764 | -15.94329 | 19123 ft | 422 kts | 227° |
| 2026-05-03 20:38 | 33.39658 | -15.96771 | 18333 ft | 419 kts | 227° |
| 2026-05-03 20:39 | 33.37575 | -15.99186 | 17469 ft | 416 kts | 227° |
| 2026-05-03 20:39 | 33.35505 | -16.01586 | 16674 ft | 412 kts | 226° |
| 2026-05-03 20:39 | 33.33454 | -16.03965 | 15935 ft | 409 kts | 226° |
| 2026-05-03 20:39 | 33.31423 | -16.06321 | 15232 ft | 405 kts | 226° |
| 2026-05-03 20:40 | 33.29405 | -16.08657 | 14544 ft | 402 kts | 226° |
| 2026-05-03 20:40 | 33.27396 | -16.10975 | 13897 ft | 400 kts | 226° |
| 2026-05-03 20:40 | 33.25404 | -16.13267 | 13212 ft | 396 kts | 226° |
| 2026-05-03 20:40 | 33.23423 | -16.15549 | 12521 ft | 393 kts | 226° |
| 2026-05-03 20:41 | 33.21466 | -16.17806 | 11829 ft | 389 kts | 226° |
| 2026-05-03 20:41 | 33.19528 | -16.20044 | 11132 ft | 385 kts | 226° |
| 2026-05-03 20:41 | 33.17608 | -16.22258 | 10423 ft | 382 kts | 225° |
| 2026-05-03 20:41 | 33.15706 | -16.24449 | 9683 ft | 378 kts | 225° |
| 2026-05-03 20:42 | 33.13847 | -16.26586 | 8887 ft | 375 kts | 225° |
| 2026-05-03 20:42 | 33.11976 | -16.28736 | 8098 ft | 371 kts | 225° |
| 2026-05-03 20:42 | 33.10129 | -16.30859 | 7305 ft | 367 kts | 225° |
| 2026-05-03 20:42 | 33.08297 | -16.32962 | 6485 ft | 364 kts | 225° |
| 2026-05-03 20:43 | 33.06484 | -16.35038 | 5648 ft | 356 kts | 225° |
| 2026-05-03 20:43 | 33.04759 | -16.37009 | 5243 ft | 329 kts | 225° |
| 2026-05-03 20:43 | 33.03177 | -16.38819 | 5078 ft | 301 kts | 225° |
| 2026-05-03 20:43 | 33.01737 | -16.40466 | 4955 ft | 275 kts | 225° |
| 2026-05-03 20:44 | 33.00412 | -16.41981 | 4827 ft | 252 kts | 225° |
| 2026-05-03 20:44 | 32.99201 | -16.43367 | 4701 ft | 232 kts | 225° |
| 2026-05-03 20:44 | 32.98083 | -16.44647 | 4570 ft | 213 kts | 225° |
| 2026-05-03 20:44 | 32.97053 | -16.45826 | 4440 ft | 200 kts | 225° |
| 2026-05-03 20:45 | 32.96052 | -16.46972 | 4319 ft | 199 kts | 225° |
| 2026-05-03 20:45 | 32.95069 | -16.48097 | 4196 ft | 199 kts | 225° |
| 2026-05-03 20:45 | 32.94074 | -16.49239 | 4072 ft | 198 kts | 225° |
| 2026-05-03 20:45 | 32.93079 | -16.50381 | 3959 ft | 198 kts | 225° |
| 2026-05-03 20:46 | 32.92088 | -16.51513 | 3834 ft | 198 kts | 225° |
| 2026-05-03 20:46 | 32.91070 | -16.52669 | 3718 ft | 206 kts | 225° |
| 2026-05-03 20:46 | 32.90024 | -16.53856 | 3510 ft | 208 kts | 224° |
| 2026-05-03 20:46 | 32.88987 | -16.55057 | 3294 ft | 208 kts | 225° |
| 2026-05-03 20:47 | 32.87957 | -16.56262 | 3066 ft | 204 kts | 225° |
| 2026-05-03 20:47 | 32.86955 | -16.57436 | 2847 ft | 200 kts | 225° |
| 2026-05-03 20:47 | 32.85969 | -16.58591 | 2637 ft | 196 kts | 225° |
| 2026-05-03 20:47 | 32.85035 | -16.59686 | 2456 ft | 182 kts | 225° |
| 2026-05-03 20:48 | 32.84167 | -16.60702 | 2255 ft | 172 kts | 225° |
| 2026-05-03 20:48 | 32.83333 | -16.61679 | 2098 ft | 160 kts | 225° |
| 2026-05-03 20:48 | 32.82568 | -16.62576 | 1949 ft | 151 kts | 225° |
| 2026-05-03 20:48 | 32.81860 | -16.63470 | 1693 ft | 149 kts | 226° |
| 2026-05-03 20:49 | 32.81137 | -16.64323 | 1452 ft | 145 kts | 226° |
| 2026-05-03 20:49 | 32.80429 | -16.65169 | 1270 ft | 143 kts | 224° |
| 2026-05-03 20:49 | 32.79706 | -16.65980 | 1070 ft | 142 kts | 223° |
| 2026-05-03 20:49 | 32.78994 | -16.66777 | 866 ft | 139 kts | 224° |
| 2026-05-03 20:50 | 32.78314 | -16.67581 | 739 ft | 137 kts | 224° |
| 2026-05-03 20:50 | 32.77655 | -16.68381 | 685 ft | 135 kts | 225° |
| 2026-05-03 20:50 | 32.77018 | -16.69207 | 778 ft | 135 kts | 226° |
| 2026-05-03 20:50 | 32.76346 | -16.70002 | 842 ft | 138 kts | 223° |
| 2026-05-03 20:51 | 32.75623 | -16.70704 | 946 ft | 132 kts | 219° |
| 2026-05-03 20:51 | 32.74907 | -16.71415 | 951 ft | 133 kts | 223° |
| 2026-05-03 20:51 | 32.74259 | -16.72188 | 832 ft | 129 kts | 225° |
| 2026-05-03 20:51 | 32.73642 | -16.72938 | 739 ft | 125 kts | 224° |
| 2026-05-03 20:52 | 32.73043 | -16.73683 | 708 ft | 125 kts | 219° |
| 2026-05-03 20:52 | 32.72415 | -16.74387 | 609 ft | 124 kts | 224° |
| 2026-05-03 20:52 | 32.71798 | -16.75100 | 488 ft | 123 kts | 226° |
| 2026-05-03 20:52 | 32.71189 | -16.75813 | 371 ft | 123 kts | 224° |
| 2026-05-03 20:53 | 32.70576 | -16.76523 | 243 ft | 122 kts | 224° |
| 2026-05-03 20:53 | 32.69978 | -16.77217 | 206 ft | 111 kts | 224° |
| 2026-05-03 20:53 | 32.69555 | -16.77720 | 185 ft | 58 kts | 225° |
| 2026-05-03 20:53 | 32.69423 | -16.77877 | 175 ft | 23 kts | 226° |
| 2026-05-03 20:54 | 32.69323 | -16.77957 | 169 ft | 15 kts | 178° |
| 2026-05-03 20:54 | 32.69330 | -16.77807 | 170 ft | 10 kts | 46° |
| 2026-05-03 20:54 | 32.69332 | -16.77745 | 171 ft | 9 kts | 134° |
| 2026-05-03 20:55 | 32.69305 | -16.77719 | 171 ft | 0 kts | 140° |